Time;durP1;ratioP1;P1;durP2;ratioP2;P2;SDS_P1;SDS_P2;PMS_P1;PMS_P2;Temp;Humidity;BMP_temperature;BMP_pressure;BME280_temperature;BME280_humidity;BME280_pressure;Samples;Min_cycle;Max_cycle;Signal;HPM_P1;HPM_P2
2022/04/04 00:02:21;;;;;;;27.30;12.95;;;179.20;2252.80;;;;;;5009892;28;20377;-78
2022/04/04 00:04:47;;;;;;;;;;;154.50;2252.80;;;;;;5003829;28;20093;-77
2022/04/04 00:07:12;;;;;;;22.48;13.38;;;154.50;2252.80;;;;;;5004222;28;20365;-77
2022/04/04 00:09:38;;;;;;;;;;;154.40;2252.80;;;;;;5001707;28;20023;-77
2022/04/04 00:12:04;;;;;;;23.33;13.32;;;154.40;2252.80;;;;;;5004039;28;20039;-77
2022/04/04 00:14:30;;;;;;;29.20;15.70;;;154.50;2252.80;;;;;;5002408;28;20390;-77
2022/04/04 00:16:56;;;;;;;;;;;154.50;2252.80;;;;;;5005187;28;20022;-77
2022/04/04 00:19:24;;;;;;;23.05;13.77;;;154.40;2252.80;;;;;;5007003;28;20361;-77
2022/04/04 00:21:50;;;;;;;22.63;13.88;;;154.50;2252.80;;;;;;5007545;28;20023;-77
2022/04/04 00:24:16;;;;;;;;;;;154.40;2252.80;;;;;;5005499;28;20537;-80
2022/04/04 00:26:42;;;;;;;23.58;13.90;;;154.50;2252.80;;;;;;5007351;28;19906;-77
2022/04/04 00:29:07;;;;;;;;;;;154.30;2252.80;;;;;;5006547;28;20026;-77
2022/04/04 00:31:33;;;;;;;19.23;12.75;;;154.40;2252.80;;;;;;5005747;28;19980;-77
2022/04/04 00:33:59;;;;;;;;;;;154.30;2252.80;;;;;;5008574;28;20026;-78
2022/04/04 00:36:25;;;;;;;24.00;13.27;;;154.30;2252.80;;;;;;5006551;28;19909;-80
2022/04/04 00:38:50;;;;;;;;;;;154.20;2252.80;;;;;;5007869;28;20479;-77
2022/04/04 00:41:17;;;;;;;22.63;12.82;;;154.20;2252.80;;;;;;5007644;28;19912;-77
2022/04/04 00:43:44;;;;;;;27.02;13.88;;;154.20;2252.80;;;;;;5006956;28;20014;-77
2022/04/04 00:46:10;;;;;;;27.33;13.95;;;154.10;2252.80;;;;;;5005799;28;20026;-76
2022/04/04 00:48:36;;;;;;;;;;;154.00;2252.80;;;;;;5006728;28;20061;-77
2022/04/04 00:51:02;;;;;;;24.70;13.20;;;154.00;2252.80;;;;;;5006468;28;19905;-77
2022/04/04 00:53:30;;;;;;;23.33;13.45;;;153.90;2252.80;;;;;;5003720;28;20182;-77
2022/04/04 00:55:56;;;;;;;27.73;14.27;;;153.90;2252.80;;;;;;5009617;28;20089;-77
2022/04/04 00:58:22;;;;;;;;;;;153.80;2252.80;;;;;;5006390;28;20041;-77
2022/04/04 01:00:49;;;;;;;19.10;11.48;;;153.80;2252.80;;;;;;5006651;28;19947;-78
2022/04/04 01:03:34;;;;;;;21.92;12.88;;;153.80;2252.80;;;;;;5007423;28;20026;-77
2022/04/04 01:06:00;;;;;;;23.10;13.85;;;153.80;2252.80;;;;;;5005423;28;20080;-77
2022/04/04 01:08:26;;;;;;;;;;;153.90;2252.80;;;;;;5004541;28;20042;-77
2022/04/04 01:10:52;;;;;;;27.52;12.77;;;153.90;2252.80;;;;;;4987305;28;19906;-80
2022/04/04 01:13:17;;;;;;;;;;;153.80;2252.80;;;;;;5005892;28;20156;-77
2022/04/04 01:15:43;;;;;;;22.38;13.80;;;153.80;2252.80;;;;;;4986991;28;20251;-77
2022/04/04 01:18:09;;;;;;;;;;;153.80;2252.80;;;;;;4988487;28;20037;-77
2022/04/04 01:20:38;;;;;;;25.33;14.38;;;153.70;2252.80;;;;;;5005050;28;19914;-77
2022/04/04 01:23:05;;;;;;;30.10;14.13;;;153.70;2252.80;;;;;;5003253;28;20092;-77
2022/04/04 01:25:33;;;;;;;23.83;13.02;;;128.90;2252.80;;;;;;5004124;28;20037;-77
2022/04/04 01:28:01;;;;;;;27.55;13.30;;;128.90;2252.80;;;;;;4986779;28;20026;-77
2022/04/04 01:30:27;;;;;;;23.65;14.07;;;128.90;2252.80;;;;;;5003631;28;20486;-77
2022/04/04 01:32:54;;;;;;;22.80;13.10;;;128.80;2252.80;;;;;;4987378;28;20026;-77
2022/04/04 01:35:20;;;;;;;24.00;13.00;;;128.80;2252.80;;;;;;4988454;28;20034;-77
2022/04/04 01:37:47;;;;;;;24.52;13.65;;;128.80;2252.80;;;;;;5002433;28;20391;-77
2022/04/04 01:40:13;;;;;;;25.02;14.32;;;128.70;2252.80;;;;;;5005593;28;20033;-77
2022/04/04 01:42:39;;;;;;;;;;;128.70;2252.80;;;;;;5007191;28;20429;-77
2022/04/04 01:45:09;;;;;;;28.42;15.93;;;128.80;2252.80;;;;;;5003885;28;19906;-76
2022/04/04 01:47:36;;;;;;;27.35;14.93;;;128.70;2252.80;;;;;;5004024;28;20045;-77
2022/04/04 01:50:03;;;;;;;23.98;14.45;;;128.50;2252.80;;;;;;5006896;28;20042;-77
2022/04/04 01:52:28;;;;;;;24.13;13.35;;;128.40;2252.80;;;;;;5004842;28;20517;-77
2022/04/04 01:54:54;;;;;;;;;;;128.40;2252.80;;;;;;5004404;28;20045;-77
2022/04/04 01:57:20;;;;;;;21.70;13.45;;;128.30;2252.80;;;;;;5005663;28;19966;-76
2022/04/04 01:59:45;;;;;;;;;;;128.30;2252.80;;;;;;5004092;28;20039;-80
2022/04/04 02:02:11;;;;;;;27.58;15.07;;;128.30;2252.80;;;;;;5004344;28;20415;-77
2022/04/04 02:04:37;;;;;;;;;;;128.10;2252.80;;;;;;5005441;28;20109;-77
2022/04/04 02:07:05;;;;;;;21.15;13.18;;;128.00;2252.80;;;;;;5003122;28;19906;-77
2022/04/04 02:09:32;;;;;;;29.08;13.52;;;103.30;2227.20;;;;;;5004293;28;20022;-77
2022/04/04 02:11:58;;;;;;;24.75;13.48;;;103.30;2227.20;;;;;;5005004;28;20033;-77
2022/04/04 02:14:24;;;;;;;;;;;103.30;2227.20;;;;;;5005765;28;20026;-77
2022/04/04 02:16:49;;;;;;;30.00;14.18;;;103.30;2227.20;;;;;;5003755;28;19913;-77
2022/04/04 02:19:17;;;;;;;;;;;103.20;2227.20;;;;;;5003943;28;20088;-80
2022/04/04 02:21:44;;;;;;;28.08;13.50;;;103.20;2227.20;;;;;;5005094;28;19972;-77
2022/04/04 02:24:10;;;;;;;27.35;12.90;;;103.10;2227.20;;;;;;5003742;28;20556;-76
2022/04/04 02:26:35;;;;;;;;;;;103.30;2227.20;;;;;;5004008;28;20117;-77
2022/04/04 02:29:02;;;;;;;29.60;14.98;;;103.30;2227.20;;;;;;5006292;28;19905;-77
2022/04/04 02:31:28;;;;;;;26.92;13.70;;;128.20;2252.80;;;;;;5003438;28;20101;-77
2022/04/04 02:33:53;;;;;;;;;;;103.30;2227.20;;;;;;5004103;28;20551;-77
2022/04/04 02:36:20;;;;;;;27.63;15.85;;;103.30;2227.20;;;;;;5005636;28;20314;-78
2022/04/04 02:38:46;;;;;;;28.10;15.45;;;103.20;2227.20;;;;;;5003329;28;20479;-80
2022/04/04 02:41:12;;;;;;;30.73;16.02;;;103.10;2227.20;;;;;;5003633;28;20022;-77
2022/04/04 02:43:39;;;;;;;;;;;103.20;2227.20;;;;;;5004965;28;20410;-77
2022/04/04 02:46:05;;;;;;;23.80;13.43;;;103.20;2227.20;;;;;;5004871;28;19905;-76
2022/04/04 02:48:31;;;;;;;22.20;14.63;;;103.30;2227.20;;;;;;5003208;28;20022;-77
2022/04/04 02:50:56;;;;;;;;;;;103.30;2227.20;;;;;;5003378;28;20018;-77
2022/04/04 02:53:22;;;;;;;31.50;13.70;;;103.30;2227.20;;;;;;5005133;28;19913;-77
2022/04/04 02:58:33;;;;;;;26.77;14.13;;;103.20;2227.20;;;;;;5004664;28;19912;-75
2022/04/04 03:00:58;;;;;;;;;;;103.20;2227.20;;;;;;5004189;28;20033;-77
2022/04/04 03:03:24;;;;;;;29.88;14.30;;;103.10;2227.20;;;;;;5004213;28;19920;-76
2022/04/04 03:05:50;;;;;;;;;;;103.10;2227.20;;;;;;5004427;28;20466;-77
2022/04/04 03:08:16;;;;;;;25.27;12.63;;;103.10;2227.20;;;;;;5004239;28;19927;-77
2022/04/04 03:10:41;;;;;;;;;;;103.00;2227.20;;;;;;5004449;28;20360;-82
2022/04/04 03:13:07;;;;;;;25.20;14.82;;;103.00;2227.20;;;;;;5002020;28;19957;-82
2022/04/04 03:15:37;;;;;;;;;;;102.90;2227.20;;;;;;5003850;28;20026;-77
2022/04/04 03:18:04;;;;;;;27.48;14.30;;;103.00;2227.20;;;;;;5004193;28;19945;-82
2022/04/04 03:20:31;;;;;;;26.80;15.13;;;102.80;2227.20;;;;;;5003172;28;20113;-76
2022/04/04 03:22:57;;;;;;;21.05;13.57;;;102.80;2227.20;;;;;;5003707;28;20049;-77
2022/04/04 03:25:23;;;;;;;26.10;14.43;;;102.80;2227.20;;;;;;5003764;28;20030;-80
2022/04/04 03:27:50;;;;;;;24.77;14.13;;;102.80;2227.20;;;;;;5002074;28;20086;-76
2022/04/04 03:30:23;;;;;;;23.08;13.82;;;102.70;2227.20;;;;;;5002709;28;20109;-76
2022/04/04 03:32:50;;;;;;;29.50;15.60;;;102.70;2227.20;;;;;;5001958;28;20038;-77
2022/04/04 03:35:17;;;;;;;24.48;13.82;;;102.60;2227.20;;;;;;5002465;28;20026;-76
2022/04/04 03:37:46;;;;;;;32.85;15.18;;;102.70;2227.20;;;;;;5004365;28;20073;-76
2022/04/04 03:40:13;;;;;;;23.42;13.32;;;102.50;2227.20;;;;;;5001950;28;20039;-77
2022/04/04 03:42:40;;;;;;;24.83;14.05;;;102.50;2227.20;;;;;;5002203;28;20076;-76
2022/04/04 03:45:08;;;;;;;26.55;15.63;;;102.50;2227.20;;;;;;5001249;28;20479;-76
2022/04/04 03:47:34;;;;;;;25.85;16.30;;;102.50;2227.20;;;;;;5002920;28;20026;-81
2022/04/04 03:50:00;;;;;;;35.38;19.13;;;102.40;2227.20;;;;;;5002102;28;20126;-77
2022/04/04 03:52:26;;;;;;;;;;;102.40;2227.20;;;;;;5001758;28;20581;-77
2022/04/04 03:54:52;;;;;;;31.92;17.95;;;77.70;2227.20;;;;;;5002916;28;20040;-76
2022/04/04 03:57:17;;;;;;;;;;;77.60;2227.20;;;;;;5004119;28;20093;-77
2022/04/04 03:59:44;;;;;;;27.27;16.17;;;77.70;2227.20;;;;;;5001901;28;19989;-77
2022/04/04 04:02:11;;;;;;;26.77;15.85;;;77.60;2227.20;;;;;;5003445;28;20028;-77
2022/04/04 04:04:37;;;;;;;24.73;14.68;;;77.70;2227.20;;;;;;5003732;28;20023;-76
2022/04/04 04:07:04;;;;;;;23.85;14.68;;;102.40;2227.20;;;;;;5002815;28;20049;-77
2022/04/04 04:09:30;;;;;;;24.77;14.68;;;77.70;2227.20;;;;;;5003927;28;20113;-77
2022/04/04 04:11:56;;;;;;;;;;;102.40;2227.20;;;;;;5004559;28;20097;-77
2022/04/04 04:14:22;;;;;;;25.20;15.00;;;102.40;2227.20;;;;;;5002890;28;20350;-76
2022/04/04 04:16:49;;;;;;;22.40;14.43;;;77.70;2227.20;;;;;;5002495;28;20022;-76
2022/04/04 04:21:58;;;;;;;26.08;14.38;;;102.40;2227.20;;;;;;5003487;28;20030;-76
2022/04/04 04:24:24;;;;;;;;;;;102.50;2227.20;;;;;;5001902;28;20042;-78
2022/04/04 04:26:50;;;;;;;24.10;13.70;;;102.60;2227.20;;;;;;5003352;28;19906;-76
2022/04/04 04:29:16;;;;;;;;;;;102.50;2227.20;;;;;;5002208;28;20022;-76
2022/04/04 04:31:42;;;;;;;24.00;12.85;;;102.50;2227.20;;;;;;5001792;28;19913;-76
2022/04/04 04:34:08;;;;;;;;;;;102.40;2227.20;;;;;;5004427;28;20033;-78
2022/04/04 04:36:34;;;;;;;19.02;11.85;;;102.40;2227.20;;;;;;5001414;28;19919;-78
2022/04/04 04:38:59;;;;;;;;;;;77.70;2227.20;;;;;;5001670;28;20034;-78
2022/04/04 04:41:25;;;;;;;20.67;11.68;;;77.70;2227.20;;;;;;5001687;28;19906;-78
2022/04/04 04:43:51;;;;;;;25.58;12.27;;;77.70;2227.20;;;;;;5003230;28;20022;-80
2022/04/04 04:46:17;;;;;;;;;;;102.40;2227.20;;;;;;5000706;28;20500;-76
2022/04/04 04:48:42;;;;;;;21.83;12.52;;;102.40;2227.20;;;;;;5002201;28;20354;-76
2022/04/04 04:51:08;;;;;;;;;;;102.40;2227.20;;;;;;5001349;28;20097;-76
2022/04/04 04:53:35;;;;;;;28.55;14.52;;;102.50;2227.20;;;;;;5003259;28;19912;-76
2022/04/04 04:56:01;;;;;;;28.33;14.93;;;102.50;2227.20;;;;;;5004417;28;20099;-76
2022/04/04 04:58:27;;;;;;;;;;;102.50;2227.20;;;;;;5005334;28;20045;-76
2022/04/04 05:00:52;;;;;;;23.17;12.00;;;102.50;2227.20;;;;;;5005499;28;20250;-77
2022/04/04 05:03:24;;;;;;;;;;;102.40;2227.20;;;;;;5012397;28;20060;-76
2022/04/04 05:05:50;;;;;;;22.35;11.15;;;102.50;2227.20;;;;;;5009247;28;19917;-76
2022/04/04 05:08:15;;;;;;;;;;;102.50;2227.20;;;;;;5004985;28;20052;-81
2022/04/04 05:10:41;;;;;;;20.27;11.68;;;102.50;2227.20;;;;;;5005394;28;20269;-76
2022/04/04 05:13:07;;;;;;;;;;;102.60;2227.20;;;;;;5006947;28;20030;-76
2022/04/04 05:15:32;;;;;;;20.75;11.57;;;102.70;2227.20;;;;;;5004830;28;20004;-76
2022/04/04 05:17:58;;;;;;;;;;;102.70;2227.20;;;;;;5005268;28;20474;-76
2022/04/04 05:20:24;;;;;;;18.63;10.48;;;102.80;2227.20;;;;;;5005134;28;19957;-76
2022/04/04 05:22:49;;;;;;;;;;;102.70;2227.20;;;;;;5004239;28;20394;-76
2022/04/04 05:25:15;;;;;;;18.73;10.50;;;102.80;2227.20;;;;;;5006068;28;19909;-76
2022/04/04 05:27:41;;;;;;;;;;;102.90;2227.20;;;;;;5004929;28;20471;-75
2022/04/04 05:30:08;;;;;;;22.70;14.23;;;103.00;2227.20;;;;;;5007147;28;19971;-77
2022/04/04 05:32:34;;;;;;;24.63;12.95;;;103.00;2227.20;;;;;;5003737;28;20027;-80
2022/04/04 05:35:01;;;;;;;23.88;13.30;;;103.00;2227.20;;;;;;5006314;28;20077;-75
2022/04/04 05:37:27;;;;;;;20.70;11.50;;;103.10;2227.20;;;;;;5005647;28;20377;-76
2022/04/04 05:39:53;;;;;;;;;;;103.30;2227.20;;;;;;5006269;28;20183;-76
2022/04/04 05:42:18;;;;;;;42.22;18.73;;;103.30;2227.20;;;;;;5003569;28;19909;-76
2022/04/04 05:44:44;;;;;;;;;;;128.00;2252.80;;;;;;5004941;28;20114;-77
2022/04/04 05:47:11;;;;;;;37.75;14.77;;;103.20;2227.20;;;;;;5004306;28;19905;-76
2022/04/04 05:49:37;;;;;;;30.73;15.40;;;103.30;2227.20;;;;;;4998030;28;20030;-81
2022/04/04 05:52:03;;;;;;;;;;;128.00;2252.80;;;;;;4996938;28;20471;-83
2022/04/04 05:54:30;;;;;;;40.67;17.97;;;128.10;2252.80;;;;;;4999661;28;19921;-77
2022/04/04 05:56:57;;;;;;;28.17;15.27;;;128.10;2252.80;;;;;;5014968;28;20109;-77
2022/04/04 05:59:23;;;;;;;33.83;16.58;;;128.10;2252.80;;;;;;5015832;28;20490;-77
2022/04/04 06:01:49;;;;;;;30.02;15.88;;;128.30;2252.80;;;;;;5014364;28;20018;-77
2022/04/04 06:04:14;;;;;;;;;;;128.10;2252.80;;;;;;5016318;28;20026;-85
2022/04/04 06:06:40;;;;;;;23.70;13.00;;;128.30;2252.80;;;;;;5014451;28;19905;-82
2022/04/04 06:09:06;;;;;;;;;;;128.40;2252.80;;;;;;5015289;28;20018;-81
2022/04/04 06:11:32;;;;;;;20.67;13.80;;;128.60;2252.80;;;;;;5014884;28;20372;-83
2022/04/04 06:13:57;;;;;;;;;;;128.60;2252.80;;;;;;5013773;28;20080;-82
2022/04/04 06:16:23;;;;;;;32.67;18.85;;;128.50;2252.80;;;;;;5014246;28;20369;-83
2022/04/04 06:18:50;;;;;;;;;;;128.40;2252.80;;;;;;5015735;28;20398;-79
2022/04/04 06:21:17;;;;;;;22.98;10.75;;;128.60;2252.80;;;;;;5014753;28;19913;-84
2022/04/04 06:23:42;;;;;;;32.30;14.82;;;128.80;2252.80;;;;;;5014578;28;20048;-78
2022/04/04 06:26:08;;;;;;;;;;;128.70;2252.80;;;;;;5014423;28;20030;-78
2022/04/04 06:28:35;;;;;;;30.98;15.45;;;128.80;2252.80;;;;;;5014528;28;19913;-79
2022/04/04 06:31:03;;;;;;;25.77;14.32;;;128.70;2252.80;;;;;;5014331;28;20061;-82
2022/04/04 06:33:30;;;;;;;26.98;14.88;;;128.60;2252.80;;;;;;5015394;28;20045;-79
2022/04/04 06:35:55;;;;;;;34.30;16.05;;;128.80;2252.80;;;;;;5014713;28;20532;-80
2022/04/04 06:38:22;;;;;;;;;;;128.90;2252.80;;;;;;5014670;28;20026;-78
2022/04/04 06:40:49;;;;;;;26.88;13.70;;;153.60;2252.80;;;;;;5004563;28;19964;-82
2022/04/04 06:43:17;;;;;;;24.02;10.98;;;153.60;2252.80;;;;;;5003825;28;20029;-78
2022/04/04 06:45:43;;;;;;;23.08;14.00;;;128.90;2252.80;;;;;;5005536;28;20411;-78
2022/04/04 06:48:09;;;;;;;20.67;11.52;;;128.90;2252.80;;;;;;5002828;28;20073;-79
2022/04/04 06:50:35;;;;;;;;;;;128.90;2252.80;;;;;;5005526;28;20030;-78
2022/04/04 06:53:01;;;;;;;21.95;10.30;;;128.90;2252.80;;;;;;5005335;28;19964;-78
2022/04/04 06:55:26;;;;;;;;;;;153.60;2252.80;;;;;;5003611;28;20491;-77
2022/04/04 06:57:52;;;;;;;19.15;9.43;;;153.80;2252.80;;;;;;5010245;28;20349;-76
2022/04/04 07:00:18;;;;;;;;;;;154.10;2252.80;;;;;;5002362;28;20398;-78
2022/04/04 07:02:44;;;;;;;19.88;10.65;;;154.20;2227.20;;;;;;5005272;28;19912;-81
2022/04/04 07:05:10;;;;;;;22.58;10.93;;;154.20;2252.80;;;;;;5003635;28;20117;-80
2022/04/04 07:07:36;;;;;;;21.48;10.80;;;154.30;2252.80;;;;;;5015322;28;20521;-77
2022/04/04 07:10:05;;;;;;;;;;;154.40;2201.60;;;;;;5014924;28;20018;-76
2022/04/04 07:12:32;;;;;;;21.08;10.88;;;154.50;2176.00;;;;;;5013784;28;19992;-76
2022/04/04 07:14:58;;;;;;;28.92;11.20;;;179.30;2150.40;;;;;;5013611;28;20083;-79
2022/04/04 07:17:23;;;;;;;;;;;179.30;2176.00;;;;;;5014765;28;20104;-76
2022/04/04 07:19:49;;;;;;;17.45;9.50;;;179.30;2176.00;;;;;;5013124;28;19920;-75
2022/04/04 07:22:16;;;;;;;;;;;179.50;2099.20;;;;;;5013457;28;20029;-78
2022/04/04 07:24:42;;;;;;;20.20;10.45;;;179.60;2099.20;;;;;;5013305;28;19909;-81
2022/04/04 07:27:08;;;;;;;18.35;10.00;;;179.70;2048.00;;;;;;5014262;28;20034;-75
2022/04/04 07:29:33;;;;;;;;;;;179.90;1996.80;;;;;;5014437;28;20084;-76
2022/04/04 07:31:59;;;;;;;13.85;6.70;;;180.10;1868.80;;;;;;5012678;28;19905;-76
2022/04/04 07:34:25;;;;;;;;;;;204.80;1843.20;;;;;;5012861;28;20079;-76
2022/04/04 07:36:51;;;;;;;16.45;7.80;;;205.00;1843.20;;;;;;5005830;28;19905;-81
2022/04/04 07:39:16;;;;;;;;;;;205.00;1843.20;;;;;;5002756;28;20034;-76
2022/04/04 07:41:42;;;;;;;10.20;6.90;;;205.10;1817.60;;;;;;5003372;28;19906;-79
2022/04/04 07:44:07;;;;;;;;;;;205.10;1792.00;;;;;;5001674;28;20566;-76
2022/04/04 07:46:33;;;;;;;12.80;7.30;;;205.30;1766.40;;;;;;5004127;28;19911;-76
2022/04/04 07:48:59;;;;;;;;;;;205.40;1792.00;;;;;;5005984;28;20386;-76
2022/04/04 07:51:27;;;;;;;11.13;6.50;;;205.70;1792.00;;;;;;5002750;28;19916;-75
2022/04/04 07:53:53;;;;;;;13.38;7.43;;;205.40;1740.80;;;;;;5002533;28;20022;-75
2022/04/04 07:56:20;;;;;;;;;;;205.60;1740.80;;;;;;5002150;28;20099;-77
2022/04/04 07:58:45;;;;;;;;;;;205.50;1766.40;;;;;;5002087;28;19917;-79
2022/04/04 08:01:11;;;;;;;10.55;6.13;;;205.60;1740.80;;;;;;5002837;28;19905;-75
2022/04/04 08:03:37;;;;;;;12.07;6.85;;;205.60;1664.00;;;;;;5008864;28;20478;-82
2022/04/04 08:06:03;;;;;;;;;;;205.50;1664.00;;;;;;5012861;28;20026;-75
2022/04/04 08:08:29;;;;;;;14.55;7.45;;;205.60;1689.60;;;;;;5013717;28;20371;-75
2022/04/04 08:10:57;;;;;;;11.88;6.53;;;205.70;1689.60;;;;;;5013379;28;20022;-76
2022/04/04 08:13:24;;;;;;;12.35;6.65;;;205.70;1715.20;;;;;;5002991;28;20030;-76
2022/04/04 08:15:50;;;;;;;8.32;6.13;;;205.60;1715.20;;;;;;5004880;28;20076;-77
2022/04/04 08:18:16;;;;;;;9.65;6.03;;;205.70;1715.20;;;;;;5003980;28;20104;-77
2022/04/04 08:20:42;;;;;;;;;;;205.70;1664.00;;;;;;4997786;28;20582;-78
2022/04/04 08:23:08;;;;;;;10.70;5.03;;;205.70;1664.00;;;;;;5002745;28;19910;-76
2022/04/04 08:25:33;;;;;;;;;;;205.60;1664.00;;;;;;5001435;28;20540;-81
2022/04/04 08:27:59;;;;;;;9.43;5.57;;;205.70;1664.00;;;;;;5004386;28;19953;-74
2022/04/04 08:30:24;;;;;;;;;;;205.70;1638.40;;;;;;5002779;28;20089;-76
2022/04/04 08:32:50;;;;;;;8.25;5.45;;;205.60;1612.80;;;;;;5001854;28;19905;-83
2022/04/04 08:35:17;;;;;;;9.82;6.00;;;205.60;1612.80;;;;;;5003619;28;20080;-79
2022/04/04 08:37:45;;;;;;;14.15;5.45;;;205.70;1612.80;;;;;;5012963;28;20018;-77
2022/04/04 08:40:13;;;;;;;10.85;5.05;;;205.60;1587.20;;;;;;5015183;28;20034;-77
2022/04/04 08:42:40;;;;;;;12.23;6.90;;;205.60;1612.80;;;;;;5015904;28;20026;-77
2022/04/04 08:45:07;;;;;;;12.30;6.70;;;205.70;1612.80;;;;;;5016257;28;20026;-75
2022/04/04 08:47:33;;;;;;;9.45;6.00;;;205.70;1689.60;;;;;;5017140;28;20029;-76
2022/04/04 08:50:00;;;;;;;10.60;6.38;;;230.50;1715.20;;;;;;5017265;28;20025;-81
2022/04/04 08:52:27;;;;;;;11.55;6.63;;;230.60;1715.20;;;;;;5016377;28;20502;-78
2022/04/04 08:54:53;;;;;;;10.93;6.00;;;230.50;1664.00;;;;;;4999604;28;20077;-80
2022/04/04 08:57:20;;;;;;;9.90;5.53;;;230.60;1664.00;;;;;;5016285;28;20057;-79
2022/04/04 08:59:46;;;;;;;10.85;6.20;;;230.50;1638.40;;;;;;5017298;28;20041;-79
2022/04/04 09:02:12;;;;;;;10.00;5.80;;;230.50;1689.60;;;;;;5014007;28;20100;-82
2022/04/04 09:04:39;;;;;;;10.20;5.55;;;230.60;1689.60;;;;;;5008085;28;20026;-79
2022/04/04 09:07:07;;;;;;;11.00;6.35;;;230.80;1612.80;;;;;;5007777;28;20107;-81
2022/04/04 09:09:49;;;;;;;11.52;6.38;;;230.80;1587.20;;;;;;5009093;28;20033;-81
2022/04/04 09:12:22;;;;;;;12.48;5.78;;;230.80;1612.80;;;;;;5014627;28;20080;-85
2022/04/04 09:14:49;;;;;;;10.00;5.97;;;230.90;1587.20;;;;;;5016199;28;20152;-79
2022/04/04 09:17:17;;;;;;;11.13;6.03;;;231.00;1612.80;;;;;;5016271;28;20437;-79
2022/04/04 09:19:43;;;;;;;9.25;5.50;;;231.00;1561.60;;;;;;5015894;28;20554;-80
2022/04/04 09:22:20;;;;;;;9.98;5.05;;;231.20;1587.20;;;;;;5015965;28;20040;-82
2022/04/04 09:24:55;;;;;;;10.98;5.30;;;231.30;1510.40;;;;;;5001191;28;20027;-83
2022/04/04 09:27:32;;;;;;;9.10;4.85;;;231.30;1459.20;;;;;;4996512;28;20026;-81
2022/04/04 09:30:05;;;;;;;9.40;5.40;;;256.00;1484.80;;;;;;4996216;28;20113;-80
2022/04/04 09:32:43;;;;;;;11.40;6.05;;;256.00;1510.40;;;;;;4995945;28;20027;-77
2022/04/04 09:35:13;;;;;;;13.70;7.03;;;256.10;1459.20;;;;;;4995974;28;20037;-78
2022/04/04 09:37:44;;;;;;;10.50;6.20;;;256.30;1510.40;;;;;;4996069;28;20113;-85
2022/04/04 09:40:15;;;;;;;8.05;5.20;;;256.20;1484.80;;;;;;4995744;28;20064;-77
2022/04/04 09:43:01;;;;;;;7.95;5.25;;;256.40;1433.60;;;;;;4995667;28;20022;-77
2022/04/04 09:45:29;;;;;;;10.17;6.70;;;256.50;1510.40;;;;;;4995131;28;20034;-83
2022/04/04 09:48:06;;;;;;;8.77;6.38;;;256.50;1484.80;;;;;;4994939;28;20090;-83
2022/04/04 09:50:50;;;;;;;11.45;6.38;;;256.50;1459.20;;;;;;4995880;28;20549;-81
2022/04/04 09:53:19;;;;;;;8.20;5.85;;;256.50;1433.60;;;;;;4995613;28;20376;-80
2022/04/04 09:55:51;;;;;;;10.63;6.10;;;256.90;1459.20;;;;;;4995456;28;20077;-81
2022/04/04 09:58:20;;;;;;;16.88;11.73;;;256.80;1382.40;;;;;;4995819;28;20117;-81
2022/04/04 10:00:49;;;;;;;10.38;5.10;;;256.70;1382.40;;;;;;4996500;28;20109;-78
2022/04/04 10:03:17;;;;;;;8.27;5.50;;;281.60;1382.40;;;;;;4996566;28;20490;-75
2022/04/04 10:05:46;;;;;;;18.30;6.57;;;281.90;1382.40;;;;;;4994791;28;20038;-76
2022/04/04 10:08:20;;;;;;;7.80;5.65;;;256.80;1382.40;;;;;;4996112;28;20033;-76
2022/04/04 10:10:47;;;;;;;9.45;5.68;;;282.00;1408.00;;;;;;4996032;28;20022;-80
2022/04/04 10:13:16;;;;;;;12.15;5.90;;;282.20;1356.80;;;;;;4996732;28;20026;-82
2022/04/04 10:15:42;;;;;;;13.00;6.13;;;282.40;1382.40;;;;;;5004112;28;20104;-84
2022/04/04 10:18:08;;;;;;;9.02;5.60;;;307.30;1408.00;;;;;;5004462;28;20060;-79
2022/04/04 10:20:35;;;;;;;9.10;5.88;;;307.50;1382.40;;;;;;5005477;28;20030;-80
2022/04/04 10:23:03;;;;;;;9.40;5.32;;;307.60;1331.20;;;;;;5003456;28;20034;-82
2022/04/04 10:25:32;;;;;;;8.93;5.47;;;307.60;1305.60;;;;;;5003757;28;20022;-82
2022/04/04 10:28:01;;;;;;;9.30;5.47;;;307.80;1305.60;;;;;;5003403;28;20298;-82
2022/04/04 10:30:41;;;;;;;10.40;6.70;;;308.00;1305.60;;;;;;4996541;28;20394;-81
2022/04/04 10:33:19;;;;;;;10.27;6.15;;;308.10;1382.40;;;;;;5001434;28;20450;-82
2022/04/04 10:35:58;;;;;;;10.23;6.05;;;333.00;1382.40;;;;;;5002708;28;20038;-81
2022/04/04 10:38:29;;;;;;;8.45;5.78;;;332.90;1331.20;;;;;;5009921;28;20022;-82
2022/04/04 10:40:55;;;;;;;9.98;6.05;;;332.90;1331.20;;;;;;5014461;28;20038;-81
2022/04/04 10:43:21;;;;;;;8.63;5.55;;;308.10;1305.60;;;;;;5014571;28;20072;-81
2022/04/04 10:46:02;;;;;;;12.25;6.05;;;333.00;1305.60;;;;;;5015470;28;20025;-80
2022/04/04 10:48:35;;;;;;;13.95;6.35;;;333.10;1305.60;;;;;;5014226;28;20026;-80
2022/04/04 10:51:28;;;;;;;12.15;6.32;;;307.70;1305.60;;;;;;5014271;28;20088;-78
2022/04/04 10:54:12;;;;;;;11.85;7.07;;;307.30;1331.20;;;;;;5014762;28;20034;-80
2022/04/04 10:56:41;;;;;;;11.65;6.70;;;307.70;1331.20;;;;;;5009180;28;20470;-78
2022/04/04 10:59:16;;;;;;;11.02;6.88;;;307.80;1356.80;;;;;;5014665;28;20048;-82
2022/04/04 11:02:02;;;;;;;8.98;6.18;;;332.80;1382.40;;;;;;5014682;28;20049;-75
2022/04/04 11:04:30;;;;;;;9.98;5.97;;;333.20;1305.60;;;;;;5013594;28;20017;-78
2022/04/04 11:10:07;;;;;;;12.68;6.32;;;333.50;1254.40;;;;;;5015106;28;20402;-79
2022/04/04 11:12:55;;;;;;;13.93;7.13;;;333.70;1254.40;;;;;;5014566;28;20047;-78
2022/04/04 11:16:08;;;;;;;12.40;8.25;;;358.60;1254.40;;;;;;5014765;28;20079;-83
2022/04/04 11:18:53;;;;;;;8.93;6.63;;;358.70;1228.80;;;;;;5011324;28;20033;-81
2022/04/04 11:21:41;;;;;;;13.90;7.32;;;358.70;1612.80;;;;;;5013521;28;20389;-79
2022/04/04 11:24:09;;;;;;;10.23;6.88;;;358.90;1280.00;;;;;;5012647;28;20038;-80
2022/04/04 11:26:35;;;;;;;8.60;6.22;;;358.80;1228.80;;;;;;5014387;28;20046;-84
2022/04/04 11:29:02;;;;;;;11.38;8.20;;;358.90;1203.20;;;;;;5014609;28;20497;-79
2022/04/04 11:31:28;;;;;;;11.02;7.53;;;359.10;1203.20;;;;;;5014538;28;20022;-80
2022/04/04 11:33:54;;;;;;;10.65;7.72;;;359.20;1203.20;;;;;;5013081;28;20029;-79
2022/04/04 11:36:32;;;;;;;11.63;7.35;;;359.10;1203.20;;;;;;5012819;28;20041;-78
2022/04/04 11:39:09;;;;;;;14.52;7.32;;;359.00;1254.40;;;;;;5013054;28;20526;-79
2022/04/04 11:41:46;;;;;;;10.95;6.05;;;359.30;1203.20;;;;;;5012565;28;20034;-80
2022/04/04 11:44:24;;;;;;;11.45;6.88;;;384.00;1152.00;;;;;;5006413;28;20053;-77
2022/04/04 11:47:06;;;;;;;9.30;6.00;;;384.00;1177.60;;;;;;5004722;28;20505;-79
2022/04/04 11:49:42;;;;;;;9.68;6.65;;;384.40;1152.00;;;;;;5002097;28;20545;-78
2022/04/04 11:52:14;;;;;;;9.82;7.05;;;384.40;1126.40;;;;;;5012938;28;20042;-78
2022/04/04 11:54:46;;;;;;;12.57;6.80;;;384.00;1152.00;;;;;;5012146;28;20385;-79
2022/04/04 11:57:12;;;;;;;9.82;6.60;;;384.20;1152.00;;;;;;5010260;28;20039;-84
2022/04/04 11:59:43;;;;;;;10.88;6.90;;;359.00;1152.00;;;;;;5012178;28;20030;-78
2022/04/04 12:02:13;;;;;;;10.95;7.57;;;359.30;1126.40;;;;;;5007588;28;20032;-78
2022/04/04 12:04:41;;;;;;;12.63;7.72;;;384.10;1126.40;;;;;;5012645;28;20437;-79
2022/04/04 12:07:09;;;;;;;10.75;8.00;;;359.00;1177.60;;;;;;5009517;28;20033;-77
2022/04/04 12:09:36;;;;;;;14.90;8.30;;;359.30;1152.00;;;;;;5012326;28;20029;-78
2022/04/04 12:12:05;;;;;;;22.33;9.00;;;384.30;1152.00;;;;;;5014539;28;20041;-79
2022/04/04 12:14:33;;;;;;;10.77;6.93;;;384.20;1177.60;;;;;;5016279;28;20014;-78
2022/04/04 12:16:59;;;;;;;11.52;6.97;;;384.40;1177.60;;;;;;5017624;28;20113;-78
2022/04/04 12:19:25;;;;;;;14.30;9.02;;;384.10;1152.00;;;;;;5016412;28;20553;-81
2022/04/04 12:21:52;;;;;;;10.30;7.03;;;384.20;1177.60;;;;;;5016393;28;20026;-76
2022/04/04 12:27:08;;;;;;;;;;;384.40;1126.40;;;;;;5016978;28;20066;-77
2022/04/04 12:29:42;;;;;;;22.23;13.15;;;384.20;1100.80;;;;;;5016239;28;19906;-77
2022/04/04 12:32:17;;;;;;;13.27;7.72;;;359.00;1203.20;;;;;;5013443;28;20435;-82
2022/04/04 12:35:02;;;;;;;7.70;5.65;;;384.00;1152.00;;;;;;5015634;28;20033;-78
2022/04/04 12:37:36;;;;;;;10.90;5.95;;;358.80;1177.60;;;;;;5012987;28;20058;-81
2022/04/04 12:40:32;;;;;;;12.15;6.90;;;359.20;1203.20;;;;;;5015504;28;20030;-81
2022/04/04 12:43:09;;;;;;;11.13;6.78;;;384.30;1152.00;;;;;;4976688;28;20030;-83